Nearby METAR Reports

 

KISP - Islip, New York, USA
Distance from station: SW 4mi, 6km
Updated: Mon, 06/24/2019 1:56 pm EDT
Mostly cloudy
Mostly cloudy
 Wind from S
Wind: S 10 mph , 17 km/h
Temperature: 82°F , 28°C
Dew Point: 52°F , 11°C
Humidity: 35%
Barometer: 29.87 inHg , 1011.5 hPa
Clouds: Mostly cloudy
Visibility: 10 miles , 16 km
Cloud details: Partly cloudy 20000 ft
Mostly cloudy 25000 ft
2019/06/24 17:56 KISP 241756Z 19009KT 10SM SCT200 BKN250 28/11 A2987 RMK AO2 SLP112 T02830106 10289 20228 57005
KHWV - Shirley, New York, USA
Distance from station: E 10mi, 16km
Updated: Mon, 06/24/2019 1:56 pm EDT
Clear
Clear
 Wind from S
Wind: S 10 mph , 17 km/h
Temperature: 82°F , 28°C
Dew Point: 50°F , 10°C
Humidity: 32%
Barometer: 29.88 inHg , 1011.9 hPa
Clouds: Clear
Visibility: 10 miles , 16 km
2019/06/24 17:56 KHWV 241756Z AUTO 19009KT 10SM CLR 28/10 A2988 RMK AO2 SLP116 T02780100 10283 20222 56004 $
 
KFRG - Farmingdale, New York, USA
Distance from station: WSW 20mi, 33km
Updated: Mon, 06/24/2019 1:53 pm EDT
Clear
Clear
 Wind from SW
Wind: SW 12 mph , 19 km/h
Temperature: 81°F , 27°C
Dew Point: 54°F , 12°C
Humidity: 39%
Barometer: 29.87 inHg , 1011.5 hPa
Clouds: Clear
Visibility: 10 miles , 16 km
2019/06/24 17:53 KFRG 241753Z 22010KT 10SM CLR 27/12 A2987 RMK AO2 SLP115 T02670117 10278 20217 57005
KBDR - Bridgeport, Connecticut, USA
Distance from station: N 23mi, 37km
Updated: Mon, 06/24/2019 1:52 pm EDT
Clear
Clear
 Wind from SW
Wind: SW 12 mph , 19 km/h
Temperature: 84°F , 29°C
Dew Point: 48°F , 9°C
Humidity: 29%
Barometer: 29.86 inHg , 1011.2 hPa
Clouds: Clear
Visibility: 10 miles , 16 km
2019/06/24 17:52 KBDR 241752Z 22010KT 10SM CLR 29/09 A2986 RMK AO2 SLP111 T02890089 10289 20211 58006
 
KFOK - Westhampton Beac, New York, USA
Distance from station: E 23mi, 37km
Updated: Mon, 06/24/2019 1:53 pm EDT
Clear
Clear
 Wind from SW
Wind: SW 12 mph , 19 km/h
Temperature: 82°F , 28°C
Dew Point: 52°F , 11°C
Humidity: 35%
Barometer: 29.89 inHg , 1012.2 hPa
Clouds: Clear
Visibility: 10 miles , 16 km
2019/06/24 17:53 KFOK 241753Z 23010KT 10SM CLR 28/11 A2989 RMK AO2 SLP121 T02780106 10283 20217 56002
KHVN - New Haven/Tweed, Connecticut, USA
Distance from station: NNE 31mi, 50km
Updated: Mon, 06/24/2019 1:53 pm EDT
Few Clouds
Few Clouds
 Wind from SSW
Wind: SSW 12 mph , 19 km/h
Temperature: 82°F , 28°C
Heat Index: 81°F , 27°C
Dew Point: 55°F , 13°C
Humidity: 40%
Barometer: 29.86 inHg , 1011.2 hPa
Clouds: Few Clouds
Visibility: 10 miles , 16 km
Cloud details: Few Clouds 5000 ft
2019/06/24 17:53 KHVN 241753Z 21010KT 10SM FEW050 28/13 A2986 RMK AO2 SLP112 T02780128 10278 20217 58005
 
KHPN - White Plains, New York, USA
Distance from station: WNW 37mi, 60km
Updated: Mon, 06/24/2019 1:56 pm EDT
Few Clouds
Few Clouds
 Wind from WSW
Wind: WSW 7 mph , 11 km/h
Temperature: 81°F , 27°C
Dew Point: 52°F , 11°C
Humidity: 37%
Barometer: 29.87 inHg , 1011.5 hPa
Clouds: Few Clouds
Visibility: 10 miles , 16 km
Cloud details: Few Clouds 6000 ft
2019/06/24 17:56 KHPN 241756Z 24006KT 10SM FEW060 27/11 A2987 RMK AO2 SLP109 T02720106 10283 20211 58006
KJFK - Nyc/Jfk Arpt, New York, USA
Distance from station: WSW 40mi, 64km
Updated: Mon, 06/24/2019 1:51 pm EDT
Mostly cloudy
Mostly cloudy
 Wind from SSE
Wind: SSE 12 mph , 19 km/h
Temperature: 81°F , 27°C
Heat Index: 82°F , 28°C
Dew Point: 63°F , 17°C
Humidity: 54%
Barometer: 29.88 inHg , 1011.9 hPa
Clouds: Mostly cloudy
Visibility: 10 miles , 16 km
Cloud details: Few Clouds 6000 ft
Partly cloudy 18000 ft
Mostly cloudy 25000 ft
2019/06/24 17:51 KJFK 241751Z 16010KT 10SM FEW060 SCT180 BKN250 27/17 A2988 RMK AO2 SLP117 T02670172 10283 20222 58006 $
 
KDXR - Danbury, Connecticut, USA
Distance from station: NNW 42mi, 68km
Updated: Mon, 06/24/2019 1:53 pm EDT
Clear
Clear
 Wind from WSW
Wind: WSW 6 mph , 9 km/h
Temperature: 81°F , 27°C
Dew Point: 48°F , 9°C
Humidity: 32%
Barometer: 29.88 inHg , 1011.9 hPa
Clouds: Clear
Visibility: 10 miles , 16 km
2019/06/24 17:53 KDXR 241753Z 25005KT 10SM CLR 27/09 A2988 RMK AO2 SLP114 T02720089 10278 20189 58007
KHTO - East Hampton, New York, USA
Distance from station: E 43mi, 69km
Updated: Mon, 06/24/2019 2:15 pm EDT
Clear
Clear
 Wind from SSW
Wind: SSW 13 mph , 20 km/h, Gust: 16 mph , 26 km/h
Temperature: 81°F , 27°C
Heat Index: 81°F , 27°C
Dew Point: 55°F , 13°C
Humidity: 42%
Barometer: 29.86 inHg , 1011.2 hPa
Clouds: Clear
Visibility: 10 miles , 16 km
2019/06/24 18:15 KHTO 241815Z AUTO 21011G14KT 10SM CLR 27/13 A2986 RMK AO2 T02720132
 
KOXC - Oxford/Waterbury, Connecticut, USA
Distance from station: N 43mi, 70km
Updated: Mon, 06/24/2019 1:51 pm EDT
Clear
Clear
 Wind from calm
Wind: Calm
Temperature: 81°F , 27°C
Dew Point: 52°F , 11°C
Humidity: 37%
Barometer: 29.89 inHg , 1012.2 hPa
Clouds: Clear
Visibility: 10 miles , 16 km
2019/06/24 17:51 KOXC 241751Z 00000KT 10SM CLR 27/11 A2989 RMK AO2 SLP129 T02720111 10272 20189 58005
KLGA - Nyc/La Guardia, New York, USA
Distance from station: W 44mi, 70km
Updated: Mon, 06/24/2019 1:51 pm EDT
Mostly cloudy
Mostly cloudy
 Wind from S
Wind: S 6 mph , 9 km/h
Temperature: 84°F , 29°C
Dew Point: 52°F , 11°C
Humidity: 33%
Barometer: 29.85 inHg , 1010.8 hPa
Clouds: Mostly cloudy
Visibility: 10 miles , 16 km
Cloud details: Few Clouds 7500 ft
Mostly cloudy 22000 ft
2019/06/24 17:51 KLGA 241751Z 18005KT 10SM FEW075 BKN220 29/11 A2985 RMK AO2 SLP108 T02940106 10300 20233 56008
 
KSNC - Chester, Connecticut, USA
Distance from station: NE 47mi, 76km
Updated: Mon, 06/24/2019 2:15 pm EDT
Partly cloudy
Partly cloudy
 Wind from SSW
Wind: SSW 10 mph , 17 km/h
Temperature: 82°F , 28°C
Heat Index: 81°F , 27°C
Dew Point: 55°F , 13°C
Humidity: 40%
Barometer: 29.87 inHg , 1011.5 hPa
Clouds: Partly cloudy
Visibility: 10 miles , 16 km
Cloud details: Few Clouds 3900 ft
Few Clouds 4800 ft
Partly cloudy 6500 ft
2019/06/24 18:15 KSNC 241815Z AUTO 21009KT 10SM FEW039 FEW048 SCT065 28/13 A2987 RMK AO2
KMMK - Meriden, Connecticut, USA
Distance from station: NNE 48mi, 77km
Updated: Mon, 06/24/2019 1:53 pm EDT
Clear
Clear
 Wind from varies
Wind: varies 3 mph , 6 km/h
Temperature: 84°F , 29°C
Dew Point: 52°F , 11°C
Humidity: 33%
Barometer: 29.85 inHg , 1010.8 hPa
Clouds: Clear
Visibility: 10 miles , 16 km
2019/06/24 17:53 KMMK 241753Z AUTO VRB03KT 10SM CLR 29/11 A2985 RMK AO2 SLP106 T02890111 10300 20200 56006
 
KNYC - Nyc/Central Park, New York, USA
Distance from station: W 48mi, 77km
Updated: Mon, 06/24/2019 1:51 pm EDT
Clear
Clear
 Wind from calm
Wind: Calm
Temperature: 84°F , 29°C
Dew Point: 55°F , 13°C
Humidity: 37%
Barometer: 29.88 inHg , 1011.9 hPa
Clouds: Clear
Visibility: 10 miles , 16 km
2019/06/24 17:51 KNYC 241751Z AUTO 00000KT 10SM CLR 29/13 A2988 RMK AO2 SLP109 T02890133 10289 20211 58010 $